Etusivu
METAR-TAF:

METAR-TAF

Lentoasemat :

Lampedusan lentoasema

Lampedusa, Italia

Leveyspiiri: 35-30N, Pituuspiiri: 012-36E, korkeus merenpinnasta: 16 m

Tämänhetkinen sää

Tämä raportti tehtiin 43 minuuttia sitten, kello 11.50 UTC
Tuuli 5 kn etelästä/lounaasta, vaihdellen etelän ja lännen/lounaan välillä
Lämpötila 28°C
Kosteus 89%
Ilmanpaine 1014 hPa
Näkyvyys 10 km tai enemmän
ei pilviä alle 1500 m:ssä eikä cumulonimbus-pilviä

METAR: LICD 121150Z 21005KT 170V240 CAVOK 28/26 Q1014

Aika: 14:33 (12:33 UTC)

Sääennuste

Tämä raportti tehtiin 1 tunti ja 33 minuuttia sitten, kello 11.00 UTC
Ennuste voimassa 12. päivästä klo 12 UTC - 13. päivään klo 12 UTC
Tuuli 6 kn etelästä
Näkyvyys 10 km tai enemmän
ei pilviä alle 1500 m:ssä eikä cumulonimbus-pilviä

TAF: LICD 121100Z 1212/1312 19006KT CAVOK

Säähavainnot ja -ennusteet yli 4000 lentoasemalta (METAR- ja TAF-raportit).

Käytössä olevat sääasemat on merkitty karttaan keltaisilla ja punaisilla pisteillä.

Aseta hiiri pisteen päälle nähdäksesi sääaseman nimen.

Klikkaa sitten nähdäksesi säähavainnot ja -ennusteet.

Kartan vaihtaminen: klikkaa mustalla rastilla varustettuja vihreitä pisteitä, niin voit zoomata sisään; viivalla varustettua vihreää pistettä, niin voit zoomata ulos tai vihreitä nuolia, niin pääset viereisille kartoille.


METAR-TAF: